ENLK Airport Information

Runway Information
Runway 03 Length 2881 ft width 0 ft
Elevation 71 ft Threshold 0 ft Heading 0
Runway 21 Length 2881 ft Width 0 ft
Elevation 72 ft Threshold 0 ft Heading 0
Airport Frequencies
Airport Navaids
Type NDB Name Sandsund Frequency 348 KHZ
Airport Weather Information & NOTAM
Deprecated: The each() function is deprecated. This message will be suppressed on further calls in /storage/content/79/1005879/virtualnac.org/public_html/v2/lib/functions.php on line 164 ADDS - METARS form results

(1236 UTC 16 January 2021)
Data provider http://aviationweather.gov/metar/data/
 
METAR text: ENLK 161150Z VRB01KT 9999 VCSH FEW015 SCT035 M02/M03 Q1019
Conditions at: ENLK (LEKNES , NO) observed 1150 UTC 16 January 2021
Temperature: -2.0°C (28°F)
Dewpoint: -3.0°C (27°F) [RH = 93%]
Pressure (altimeter): 30.09 inches Hg (1019.0 mb)
Winds: variable direction winds at 1 MPH (1 knots; 0.5 m/s)
Visibility: 6 or more miles (10+ km)
Ceiling: at least 12,000 feet AGL
Clouds: few clouds at 1500 feet AGL
scattered clouds at 3500 feet AGL
Weather: VCSH  (showers in vicinity)